Time;durP1;ratioP1;P1;durP2;ratioP2;P2;SDS_P1;SDS_P2;PMS_P1;PMS_P2;Temp;Humidity;BMP_temperature;BMP_pressure;BME280_temperature;BME280_humidity;BME280_pressure;Samples;Min_cycle;Max_cycle;Signal;HPM_P1;HPM_P2
2022/09/08 00:01:12;;;;;;;0.30;0.30;;;15.50;99.90;;;;;;6086542;23;20354;-80
2022/09/08 00:03:39;;;;;;;0.28;0.20;;;15.50;99.90;;;;;;6085676;23;20108;-81
2022/09/08 00:06:08;;;;;;;0.13;0.10;;;15.50;99.90;;;;;;6087445;23;20042;-81
2022/09/08 00:08:35;;;;;;;0.75;0.20;;;15.50;99.90;;;;;;6086691;23;20025;-81
2022/09/08 00:11:03;;;;;;;0.20;0.20;;;15.50;99.90;;;;;;6087754;23;20129;-81
2022/09/08 00:13:30;;;;;;;0.68;0.25;;;15.50;99.90;;;;;;6087608;23;20025;-82
2022/09/08 00:16:01;;;;;;;0.20;0.20;;;15.50;99.90;;;;;;6064069;23;20044;-82
2022/09/08 00:18:34;;;;;;;0.10;0.10;;;15.50;99.90;;;;;;6065485;23;20026;-83
2022/09/08 00:21:02;;;;;;;0.35;0.30;;;15.50;99.90;;;;;;6063531;23;20022;-82
2022/09/08 00:23:29;;;;;;;0.68;0.20;;;15.50;99.90;;;;;;6087100;23;20471;-82
2022/09/08 00:25:57;;;;;;;0.28;0.10;;;15.50;99.90;;;;;;6063506;23;20041;-82
2022/09/08 00:28:25;;;;;;;0.20;0.20;;;15.50;99.90;;;;;;6087172;23;20214;-82
2022/09/08 00:30:54;;;;;;;0.32;0.20;;;15.50;99.90;;;;;;6113296;23;20048;-82
2022/09/08 00:33:22;;;;;;;0.15;0.10;;;15.60;99.90;;;;;;6087356;23;20102;-82
2022/09/08 00:35:51;;;;;;;0.10;0.10;;;15.60;99.90;;;;;;6063520;23;20354;-82
2022/09/08 00:38:19;;;;;;;0.10;0.10;;;15.50;99.90;;;;;;6087965;23;20024;-81
2022/09/08 00:40:46;;;;;;;0.00;0.00;;;15.50;99.90;;;;;;6087525;23;20033;-82
2022/09/08 00:43:35;;;;;;;0.10;0.10;;;15.50;99.90;;;;;;6063936;23;20026;-81
2022/09/08 00:46:27;;;;;;;0.10;0.10;;;15.60;99.90;;;;;;6064750;23;20022;-81
2022/09/08 00:49:01;;;;;;;0.13;0.10;;;15.60;99.90;;;;;;6046672;23;20517;-81
2022/09/08 00:51:28;;;;;;;0.20;0.20;;;15.60;99.90;;;;;;6086795;23;20044;-81
2022/09/08 00:53:55;;;;;;;0.17;0.17;;;15.60;99.90;;;;;;6086594;23;20014;-81
2022/09/08 00:56:22;;;;;;;0.15;0.10;;;15.60;99.90;;;;;;6063548;23;20022;-80
2022/09/08 00:58:50;;;;;;;0.15;0.15;;;15.50;99.90;;;;;;6063789;23;20033;-81
2022/09/08 01:01:17;;;;;;;0.35;0.10;;;15.60;99.90;;;;;;6061961;23;20050;-81
2022/09/08 01:03:44;;;;;;;0.10;0.10;;;15.60;99.90;;;;;;6086729;23;20025;-81
2022/09/08 01:12:43;;;;;;;0.10;0.10;;;15.60;99.90;;;;;;6063205;23;20022;-80
2022/09/08 01:15:00;;;;;;;0.10;0.10;;;15.60;99.90;;;;;;6093694;23;20044;-81
2022/09/08 01:17:30;;;;;;;0.20;0.20;;;15.50;99.90;;;;;;6090925;23;20426;-81
2022/09/08 01:19:58;;;;;;;0.05;0.05;;;15.50;99.90;;;;;;6066675;23;20026;-81
2022/09/08 01:22:43;;;;;;;0.10;0.10;;;15.50;99.90;;;;;;6091407;23;20453;-81
2022/09/08 01:26:07;;;;;;;0.00;0.00;;;15.50;99.90;;;;;;6117584;23;20041;-81
2022/09/08 01:28:51;;;;;;;;;;;15.50;99.90;;;;;;5999192;23;20030;-80
2022/09/08 01:31:18;;;;;;;0.10;0.10;;;15.50;99.90;;;;;;6085305;23;19984;-80
2022/09/08 01:33:45;;;;;;;0.08;0.08;;;15.50;99.90;;;;;;6065953;23;20018;-80
2022/09/08 01:36:13;;;;;;;0.10;0.10;;;15.50;99.90;;;;;;6067821;23;20029;-80
2022/09/08 01:38:41;;;;;;;0.10;0.10;;;15.50;99.90;;;;;;6093122;23;20120;-81
2022/09/08 01:41:08;;;;;;;0.10;0.10;;;15.50;99.90;;;;;;6095478;23;20085;-80
2022/09/08 01:43:35;;;;;;;0.10;0.10;;;15.40;99.90;;;;;;6093736;23;20029;-80
2022/09/08 01:46:02;;;;;;;0.03;0.03;;;15.40;99.90;;;;;;6091820;23;20026;-80
2022/09/08 01:48:29;;;;;;;0.10;0.10;;;15.40;99.90;;;;;;6090148;23;20363;-80
2022/09/08 01:51:00;;;;;;;0.10;0.10;;;15.40;99.90;;;;;;6091051;23;20022;-80
2022/09/08 01:53:27;;;;;;;0.10;0.10;;;15.30;99.90;;;;;;6091286;23;20024;-80
2022/09/08 01:55:54;;;;;;;0.00;0.00;;;15.30;99.90;;;;;;6091341;23;20644;-80
2022/09/08 01:58:21;;;;;;;0.10;0.10;;;15.30;99.90;;;;;;6067558;23;20040;-79
2022/09/08 02:00:48;;;;;;;0.10;0.10;;;15.20;99.90;;;;;;6091151;23;20026;-80
2022/09/08 02:03:15;;;;;;;0.00;0.00;;;15.20;99.90;;;;;;6090301;23;20533;-79
2022/09/08 02:05:42;;;;;;;0.10;0.10;;;15.10;99.90;;;;;;6090800;23;20021;-79
2022/09/08 02:08:09;;;;;;;0.17;0.10;;;15.10;99.90;;;;;;6066939;23;20621;-79
2022/09/08 02:10:36;;;;;;;0.15;0.15;;;15.10;99.90;;;;;;6093625;23;20025;-79
2022/09/08 02:13:03;;;;;;;0.10;0.10;;;15.10;99.90;;;;;;6069497;23;20041;-80
2022/09/08 02:15:33;;;;;;;0.10;0.10;;;15.10;99.90;;;;;;6093587;23;20478;-80
2022/09/08 02:18:00;;;;;;;0.08;0.08;;;15.10;99.90;;;;;;6069170;23;20320;-79
2022/09/08 02:20:26;;;;;;;0.10;0.10;;;15.00;99.90;;;;;;6093358;23;20295;-80
2022/09/08 02:22:53;;;;;;;0.30;0.10;;;15.00;99.90;;;;;;6092370;23;20033;-80
2022/09/08 02:25:21;;;;;;;0.13;0.13;;;15.00;99.90;;;;;;6069764;23;20029;-79
2022/09/08 02:27:52;;;;;;;0.05;0.05;;;15.00;99.90;;;;;;6093330;23;20025;-79
2022/09/08 02:30:19;;;;;;;0.10;0.10;;;14.90;99.90;;;;;;6092735;23;20018;-80
2022/09/08 02:32:46;;;;;;;0.10;0.10;;;14.90;99.90;;;;;;6092839;23;20029;-79
2022/09/08 02:35:13;;;;;;;0.00;0.00;;;14.90;99.90;;;;;;6093545;23;20018;-79
2022/09/08 02:37:40;;;;;;;0.10;0.10;;;14.90;99.90;;;;;;6068866;23;20026;-79
2022/09/08 02:40:08;;;;;;;0.10;0.10;;;15.00;99.90;;;;;;6069204;23;20037;-80
2022/09/08 02:42:36;;;;;;;0.10;0.10;;;14.90;99.90;;;;;;6092484;23;20100;-79
2022/09/08 02:45:03;;;;;;;0.20;0.20;;;14.90;99.90;;;;;;6069123;23;20033;-79
2022/09/08 02:47:33;;;;;;;0.10;0.10;;;14.90;99.90;;;;;;6093120;23;20068;-79
2022/09/08 02:50:00;;;;;;;0.10;0.10;;;14.80;99.90;;;;;;6068500;23;20049;-80
2022/09/08 02:52:30;;;;;;;0.10;0.10;;;14.80;99.90;;;;;;6092890;23;20028;-80
2022/09/08 02:54:57;;;;;;;0.00;0.00;;;14.80;99.90;;;;;;6069373;23;20030;-79
2022/09/08 02:57:24;;;;;;;0.10;0.10;;;14.80;99.90;;;;;;6068856;23;20025;-80
2022/09/08 02:59:51;;;;;;;0.15;0.10;;;14.80;99.90;;;;;;6092880;23;20022;-80
2022/09/08 03:02:21;;;;;;;0.17;0.10;;;14.80;99.90;;;;;;6091630;23;20048;-79
2022/09/08 03:04:49;;;;;;;0.10;0.10;;;14.80;99.90;;;;;;6091511;23;20022;-79
2022/09/08 03:07:17;;;;;;;0.20;0.10;;;14.80;99.90;;;;;;6092436;23;20092;-80
2022/09/08 03:09:44;;;;;;;0.05;0.05;;;14.70;99.90;;;;;;6093146;23;20018;-80
2022/09/08 03:12:12;;;;;;;0.10;0.10;;;14.70;99.90;;;;;;6092781;23;20423;-79
2022/09/08 03:14:39;;;;;;;0.28;0.20;;;14.70;99.90;;;;;;6068777;23;20042;-79
2022/09/08 03:17:06;;;;;;;0.10;0.10;;;14.70;99.90;;;;;;6092020;23;20109;-79
2022/09/08 03:19:33;;;;;;;0.10;0.10;;;14.70;99.90;;;;;;6092061;23;20022;-79
2022/09/08 03:22:00;;;;;;;0.10;0.10;;;14.60;99.90;;;;;;6092032;23;20097;-79
2022/09/08 03:24:27;;;;;;;0.10;0.10;;;14.60;99.90;;;;;;6092646;23;20089;-79
2022/09/08 03:26:54;;;;;;;0.17;0.17;;;14.60;99.90;;;;;;6091841;23;20046;-79
2022/09/08 03:29:21;;;;;;;0.10;0.10;;;14.60;99.90;;;;;;6118041;23;20053;-79
2022/09/08 03:31:49;;;;;;;0.10;0.10;;;14.60;99.90;;;;;;6068213;23;20022;-79
2022/09/08 03:34:15;;;;;;;0.10;0.10;;;14.60;99.90;;;;;;6067769;23;20409;-79
2022/09/08 03:36:43;;;;;;;0.10;0.10;;;14.50;99.90;;;;;;6118014;23;20026;-79
2022/09/08 03:39:09;;;;;;;0.25;0.17;;;14.60;99.90;;;;;;6068665;23;20028;-79
2022/09/08 03:41:36;;;;;;;0.30;0.10;;;14.50;99.90;;;;;;6092523;23;20018;-80
2022/09/08 03:44:03;;;;;;;0.43;0.20;;;14.60;99.90;;;;;;6092050;23;20053;-79
2022/09/08 03:46:32;;;;;;;0.15;0.10;;;14.50;99.90;;;;;;6091616;23;20018;-79
2022/09/08 03:48:59;;;;;;;0.10;0.10;;;14.50;99.90;;;;;;6067892;23;20149;-79
2022/09/08 03:51:26;;;;;;;0.22;0.22;;;14.50;99.90;;;;;;6067633;23;20098;-79
2022/09/08 03:54:46;;;;;;;0.17;0.17;;;14.50;99.90;;;;;;6068427;23;20381;-79
2022/09/08 03:56:42;;;;;;;0.10;0.10;;;14.50;99.90;;;;;;6096455;23;20026;-79
2022/09/08 03:59:09;;;;;;;0.10;0.10;;;14.50;99.90;;;;;;6068006;23;20540;-79
2022/09/08 04:01:36;;;;;;;0.30;0.20;;;14.50;99.90;;;;;;6090553;23;20026;-79
2022/09/08 04:04:03;;;;;;;0.10;0.10;;;14.60;99.90;;;;;;6091219;23;20022;-79
2022/09/08 04:06:30;;;;;;;0.15;0.15;;;14.60;99.90;;;;;;6091745;23;20018;-80
2022/09/08 04:08:57;;;;;;;0.10;0.10;;;14.60;99.90;;;;;;6092270;23;20048;-79
2022/09/08 04:11:24;;;;;;;0.10;0.10;;;14.60;99.90;;;;;;6091423;23;20578;-79
2022/09/08 04:13:51;;;;;;;0.28;0.10;;;14.60;99.90;;;;;;6091862;23;20816;-79
2022/09/08 04:16:18;;;;;;;0.10;0.10;;;14.60;99.90;;;;;;6066956;23;20121;-79
2022/09/08 04:18:45;;;;;;;0.20;0.20;;;14.60;99.90;;;;;;6066943;23;20032;-79
2022/09/08 04:21:11;;;;;;;0.00;0.00;;;14.60;99.90;;;;;;6092119;23;20022;-79
2022/09/08 04:23:38;;;;;;;0.20;0.20;;;14.50;99.90;;;;;;6068020;23;20112;-78
2022/09/08 04:26:07;;;;;;;0.03;0.03;;;14.50;99.90;;;;;;6091766;23;20034;-79
2022/09/08 04:28:34;;;;;;;0.10;0.10;;;14.50;99.90;;;;;;6068465;23;20037;-79
2022/09/08 04:31:06;;;;;;;0.50;0.50;;;14.40;99.90;;;;;;6091480;23;20126;-79
2022/09/08 04:33:32;;;;;;;0.35;0.15;;;14.40;99.90;;;;;;6090896;23;20406;-79
2022/09/08 04:36:05;;;;;;;0.10;0.10;;;14.40;99.90;;;;;;6091919;23;20021;-80
2022/09/08 04:38:51;;;;;;;0.10;0.10;;;14.40;99.90;;;;;;6075563;23;20578;-80
2022/09/08 04:41:18;;;;;;;0.08;0.08;;;14.40;99.90;;;;;;6068341;23;20453;-78
2022/09/08 04:43:44;;;;;;;0.30;0.10;;;14.40;99.90;;;;;;6068044;23;20025;-79
2022/09/08 04:46:13;;;;;;;0.20;0.20;;;14.30;99.90;;;;;;6091848;23;20022;-79
2022/09/08 04:48:40;;;;;;;0.15;0.10;;;14.30;99.90;;;;;;6063731;23;20029;-78
2022/09/08 04:51:09;;;;;;;0.00;0.00;;;14.20;99.90;;;;;;6066056;23;20237;-79
2022/09/08 04:53:37;;;;;;;0.13;0.13;;;14.30;99.90;;;;;;6088187;23;20025;-75
2022/09/08 04:56:06;;;;;;;0.20;0.20;;;14.20;99.90;;;;;;6089881;23;20022;-78
2022/09/08 04:58:33;;;;;;;0.25;0.20;;;14.20;99.90;;;;;;6088080;23;20048;-77
2022/09/08 05:01:10;;;;;;;0.10;0.10;;;14.20;99.90;;;;;;6088462;23;20105;-77
2022/09/08 05:03:37;;;;;;;0.20;0.20;;;14.20;99.90;;;;;;6083994;23;20051;-78
2022/09/08 05:06:05;;;;;;;0.20;0.20;;;14.20;99.90;;;;;;6063787;23;20018;-78
2022/09/08 05:08:32;;;;;;;0.15;0.15;;;14.20;99.90;;;;;;6086441;23;20045;-78
2022/09/08 05:10:59;;;;;;;0.20;0.20;;;14.20;99.90;;;;;;6088360;23;20102;-78
2022/09/08 05:13:26;;;;;;;0.25;0.20;;;14.20;99.90;;;;;;6090071;23;20151;-78
2022/09/08 05:15:59;;;;;;;0.50;0.10;;;14.10;99.90;;;;;;6066615;23;20037;-78
2022/09/08 05:18:26;;;;;;;;;;;14.10;99.90;;;;;;6089333;23;20026;-78
2022/09/08 05:20:53;;;;;;;0.30;0.30;;;14.10;99.90;;;;;;6088705;23;19937;-78
2022/09/08 05:23:20;;;;;;;0.45;0.30;;;14.20;99.90;;;;;;6066076;23;20090;-78
2022/09/08 05:25:59;;;;;;;0.25;0.20;;;14.20;99.90;;;;;;6089904;23;20117;-79
2022/09/08 05:28:25;;;;;;;0.20;0.20;;;14.10;99.90;;;;;;6065225;23;20370;-77
2022/09/08 05:30:52;;;;;;;0.35;0.22;;;14.20;99.90;;;;;;6063467;23;20033;-78
2022/09/08 05:33:19;;;;;;;0.20;0.20;;;14.20;99.90;;;;;;6086965;23;20119;-78
2022/09/08 05:35:46;;;;;;;0.55;0.30;;;14.30;99.90;;;;;;6088344;23;20026;-78
2022/09/08 05:38:13;;;;;;;0.35;0.35;;;14.30;99.90;;;;;;6088830;23;20097;-78
2022/09/08 05:40:40;;;;;;;0.10;0.10;;;14.30;99.90;;;;;;6063918;23;20026;-77
2022/09/08 05:43:07;;;;;;;0.10;0.10;;;14.30;99.90;;;;;;6062028;23;20030;-79
2022/09/08 05:45:34;;;;;;;0.15;0.15;;;14.40;99.90;;;;;;6086295;23;20025;-79
2022/09/08 05:48:02;;;;;;;0.28;0.28;;;14.40;99.90;;;;;;6064325;23;20061;-79
2022/09/08 05:50:34;;;;;;;0.17;0.17;;;14.40;99.90;;;;;;6090772;23;20018;-79
2022/09/08 05:53:01;;;;;;;0.28;0.20;;;14.50;99.90;;;;;;6091770;23;20253;-79
2022/09/08 05:55:28;;;;;;;0.28;0.25;;;14.50;99.90;;;;;;6091582;23;20057;-79
2022/09/08 05:57:56;;;;;;;0.75;0.35;;;14.50;99.90;;;;;;6090446;23;20033;-79
2022/09/08 06:00:43;;;;;;;0.20;0.20;;;14.50;99.90;;;;;;6073689;23;20030;-79
2022/09/08 06:03:11;;;;;;;0.13;0.13;;;14.60;99.90;;;;;;6087823;23;20125;-79
2022/09/08 06:05:38;;;;;;;0.43;0.22;;;14.60;99.90;;;;;;6065245;23;20022;-78
2022/09/08 06:08:04;;;;;;;0.20;0.20;;;14.60;99.90;;;;;;6065741;23;20436;-77
2022/09/08 06:10:35;;;;;;;0.17;0.17;;;14.70;99.90;;;;;;6116128;23;20041;-79
2022/09/08 06:13:02;;;;;;;0.32;0.20;;;14.80;99.90;;;;;;6068124;23;20100;-77
2022/09/08 06:15:29;;;;;;;0.10;0.10;;;14.90;99.90;;;;;;6089681;23;20036;-79
2022/09/08 06:17:58;;;;;;;0.32;0.10;;;14.90;99.90;;;;;;6065889;23;20057;-80
2022/09/08 06:20:25;;;;;;;0.10;0.10;;;15.00;99.90;;;;;;6067307;23;20383;-79
2022/09/08 06:22:52;;;;;;;0.20;0.20;;;15.10;99.90;;;;;;6089866;23;20036;-80
2022/09/08 06:25:18;;;;;;;0.10;0.10;;;15.20;99.90;;;;;;6086434;23;20022;-83
2022/09/08 06:28:02;;;;;;;0.28;0.20;;;15.20;99.90;;;;;;6112663;23;20053;-79
2022/09/08 06:30:28;;;;;;;0.68;0.20;;;15.30;99.90;;;;;;6090250;23;20045;-79
2022/09/08 06:33:18;;;;;;;0.17;0.17;;;15.40;99.90;;;;;;6074967;23;20036;-78
2022/09/08 06:35:51;;;;;;;0.55;0.20;;;15.40;99.90;;;;;;6091715;23;20022;-79
2022/09/08 06:38:34;;;;;;;0.15;0.10;;;15.40;99.90;;;;;;6091584;23;20021;-80
2022/09/08 06:41:07;;;;;;;;;;;15.40;99.90;;;;;;6093592;23;20095;-83
2022/09/08 06:43:42;;;;;;;;;;;15.40;99.90;;;;;;6087695;23;19927;-84
2022/09/08 06:46:17;;;;;;;0.13;0.13;;;15.30;99.90;;;;;;6062352;23;20023;-84
2022/09/08 06:48:45;;;;;;;0.47;0.30;;;15.30;99.90;;;;;;6089410;23;20253;-84
2022/09/08 06:51:47;;;;;;;0.10;0.10;;;15.30;99.90;;;;;;6067624;23;20034;-84
2022/09/08 06:54:17;;;;;;;0.68;0.20;;;15.30;99.90;;;;;;6090780;23;20018;-84
2022/09/08 06:56:59;;;;;;;0.30;0.20;;;15.30;99.90;;;;;;6118393;23;20084;-83
2022/09/08 07:00:08;;;;;;;0.38;0.30;;;15.30;99.90;;;;;;6095847;23;20018;-81
2022/09/08 07:03:09;;;;;;;0.38;0.20;;;15.40;99.90;;;;;;6088514;23;20022;-81
2022/09/08 07:05:41;;;;;;;0.32;0.28;;;15.40;99.90;;;;;;6064339;23;20100;-83
2022/09/08 07:08:29;;;;;;;0.93;0.40;;;15.50;99.90;;;;;;6115863;23;20261;-83
2022/09/08 07:11:22;;;;;;;0.35;0.20;;;15.50;99.90;;;;;;6091700;23;20479;-83
2022/09/08 07:14:01;;;;;;;0.55;0.22;;;15.60;99.90;;;;;;6092504;23;20065;-83
2022/09/08 07:16:34;;;;;;;0.38;0.28;;;15.60;99.90;;;;;;6090935;23;20026;-83
2022/09/08 07:19:22;;;;;;;0.30;0.20;;;15.70;99.90;;;;;;6117305;23;20022;-82
2022/09/08 07:22:43;;;;;;;0.45;0.28;;;15.70;99.90;;;;;;6117494;23;20128;-83
2022/09/08 07:25:19;;;;;;;0.40;0.38;;;15.60;99.90;;;;;;6091082;23;20025;-82
2022/09/08 07:27:49;;;;;;;0.35;0.30;;;15.60;99.90;;;;;;6117050;23;20022;-83
2022/09/08 07:30:18;;;;;;;0.30;0.20;;;15.70;99.90;;;;;;6087645;23;20033;-83
2022/09/08 07:32:51;;;;;;;0.20;0.20;;;15.70;99.90;;;;;;6086512;23;20029;-83
2022/09/08 07:35:50;;;;;;;0.38;0.30;;;15.70;99.90;;;;;;6091497;23;20040;-83
2022/09/08 07:38:50;;;;;;;0.47;0.20;;;15.80;99.90;;;;;;6086871;23;20037;-83
2022/09/08 07:41:36;;;;;;;1.02;0.20;;;15.80;99.90;;;;;;6063489;23;20448;-83
2022/09/08 07:44:14;;;;;;;0.25;0.20;;;15.90;99.90;;;;;;6086953;23;20022;-83
2022/09/08 07:46:53;;;;;;;0.20;0.20;;;15.90;99.90;;;;;;6064205;23;20057;-83
2022/09/08 07:49:43;;;;;;;0.22;0.20;;;15.90;99.90;;;;;;6112455;23;20097;-84
2022/09/08 07:52:15;;;;;;;0.20;0.20;;;15.90;99.90;;;;;;6087525;23;20105;-83
2022/09/08 07:54:52;;;;;;;0.60;0.20;;;15.90;99.90;;;;;;6088030;23;20034;-82
2022/09/08 07:57:28;;;;;;;0.10;0.10;;;16.00;99.90;;;;;;6087849;23;20053;-83
2022/09/08 08:00:15;;;;;;;0.30;0.20;;;16.00;99.90;;;;;;6089851;23;20219;-82
2022/09/08 08:02:54;;;;;;;0.65;0.38;;;16.00;99.90;;;;;;6082051;23;20057;-82
2022/09/08 08:05:25;;;;;;;0.35;0.22;;;16.10;99.90;;;;;;6081499;23;20064;-82
2022/09/08 08:08:26;;;;;;;0.47;0.40;;;16.20;99.90;;;;;;6057421;23;20027;-82
2022/09/08 08:11:03;;;;;;;0.68;0.30;;;16.30;99.90;;;;;;6082287;23;20136;-82
2022/09/08 08:13:58;;;;;;;0.20;0.20;;;16.30;99.90;;;;;;6082525;23;20030;-82
2022/09/08 08:16:51;;;;;;;0.20;0.20;;;16.40;99.90;;;;;;6083326;23;20573;-82
2022/09/08 08:20:01;;;;;;;0.30;0.30;;;16.50;99.90;;;;;;6066757;23;20072;-82
2022/09/08 08:23:17;;;;;;;0.73;0.15;;;16.60;99.90;;;;;;6082966;23;20022;-82
2022/09/08 08:26:03;;;;;;;0.20;0.20;;;16.60;99.90;;;;;;6051424;23;20041;-81
2022/09/08 08:28:33;;;;;;;0.20;0.20;;;16.70;99.90;;;;;;6082516;23;20025;-81
2022/09/08 08:31:12;;;;;;;0.30;0.30;;;16.80;99.90;;;;;;6058397;23;20459;-81
2022/09/08 08:33:45;;;;;;;0.43;0.30;;;16.80;99.90;;;;;;6082893;23;20034;-81
2022/09/08 08:36:15;;;;;;;0.38;0.22;;;16.90;99.90;;;;;;6058422;23;20052;-82
2022/09/08 08:38:45;;;;;;;0.40;0.30;;;17.00;99.90;;;;;;6082234;23;20030;-81
2022/09/08 08:41:17;;;;;;;0.55;0.30;;;17.00;99.90;;;;;;6081376;23;20030;-79
2022/09/08 08:44:02;;;;;;;0.32;0.30;;;17.10;99.90;;;;;;6081244;23;20026;-80
2022/09/08 08:46:47;;;;;;;0.47;0.38;;;17.10;99.90;;;;;;6080506;23;20026;-80
2022/09/08 08:49:45;;;;;;;0.85;0.52;;;17.10;99.90;;;;;;6079666;23;20060;-81
2022/09/08 08:52:47;;;;;;;1.10;0.50;;;17.20;99.90;;;;;;6081093;23;20381;-81
2022/09/08 08:55:42;;;;;;;1.20;0.70;;;17.20;99.90;;;;;;6077437;23;20286;-81
2022/09/08 08:58:46;;;;;;;1.35;0.73;;;17.30;99.90;;;;;;6083875;23;20046;-82
2022/09/08 09:01:16;;;;;;;1.80;1.08;;;17.40;99.90;;;;;;6081501;23;20022;-82
2022/09/08 09:04:21;;;;;;;2.28;1.48;;;17.40;99.90;;;;;;6082938;23;20319;-81
2022/09/08 09:07:13;;;;;;;2.75;1.48;;;17.50;99.90;;;;;;6057748;23;20082;-81
2022/09/08 09:09:53;;;;;;;2.47;1.83;;;17.60;99.90;;;;;;6081141;23;20026;-81
2022/09/08 09:12:46;;;;;;;3.10;2.00;;;17.60;99.90;;;;;;6081841;23;20026;-81
2022/09/08 09:15:37;;;;;;;3.47;2.17;;;17.80;99.90;;;;;;6078476;23;20081;-81
2022/09/08 09:18:33;;;;;;;2.92;1.55;;;17.90;99.90;;;;;;6082682;23;20447;-81
2022/09/08 09:21:17;;;;;;;2.10;1.15;;;18.00;99.90;;;;;;6083833;23;20122;-81
2022/09/08 09:23:47;;;;;;;3.33;1.35;;;18.10;99.90;;;;;;6084117;23;20030;-82
2022/09/08 09:26:20;;;;;;;3.05;1.45;;;18.10;99.90;;;;;;6085371;23;20028;-81
2022/09/08 09:29:13;;;;;;;4.60;2.22;;;18.30;99.90;;;;;;6084039;23;20422;-82
2022/09/08 09:31:43;;;;;;;3.55;2.10;;;18.40;99.90;;;;;;6062384;23;20465;-81
2022/09/08 09:34:28;;;;;;;3.22;1.92;;;18.40;99.90;;;;;;6083243;23;20430;-82
2022/09/08 09:37:00;;;;;;;4.00;1.80;;;18.30;99.90;;;;;;6085608;23;20588;-81
2022/09/08 09:40:01;;;;;;;3.15;1.70;;;18.40;99.90;;;;;;6084223;23;20343;-81
2022/09/08 09:42:52;;;;;;;1.85;1.40;;;18.40;99.90;;;;;;6057132;23;20033;-81
2022/09/08 09:45:44;;;;;;;4.35;2.25;;;18.40;99.90;;;;;;6083424;23;20019;-81
2022/09/08 09:48:51;;;;;;;2.95;1.88;;;18.40;99.90;;;;;;6082794;23;20030;-82
2022/09/08 09:51:56;;;;;;;2.10;1.45;;;18.60;99.90;;;;;;6082813;23;20022;-81
2022/09/08 09:54:49;;;;;;;4.13;1.95;;;18.80;99.90;;;;;;6083796;23;20125;-81
2022/09/08 09:57:53;;;;;;;2.38;1.63;;;19.10;99.90;;;;;;6068817;23;20323;-80
2022/09/08 10:00:25;;;;;;;2.95;1.58;;;19.20;99.90;;;;;;6084761;23;20030;-81
2022/09/08 10:03:28;;;;;;;1.70;1.20;;;19.40;99.90;;;;;;6059472;23;20348;-80
2022/09/08 10:06:04;;;;;;;2.10;1.17;;;19.60;99.90;;;;;;6084555;23;20022;-82
2022/09/08 10:09:03;;;;;;;2.67;1.23;;;19.90;99.90;;;;;;6082280;23;20028;-81
2022/09/08 10:11:58;;;;;;;1.33;0.90;;;20.10;99.90;;;;;;6082990;23;20093;-82
2022/09/08 10:14:40;;;;;;;1.27;0.65;;;20.30;99.90;;;;;;6082347;23;20026;-82
2022/09/08 10:17:15;;;;;;;1.52;0.70;;;20.50;99.90;;;;;;6082612;23;20110;-82
2022/09/08 10:20:39;;;;;;;1.38;0.63;;;20.50;99.90;;;;;;6081979;23;20026;-82
2022/09/08 10:23:39;;;;;;;3.10;0.98;;;20.60;99.90;;;;;;6051760;23;20419;-80
2022/09/08 10:26:35;;;;;;;3.90;1.33;;;20.70;99.90;;;;;;6005905;23;20054;-82
2022/09/08 10:29:08;;;;;;;2.50;1.10;;;20.80;99.90;;;;;;6070097;23;20019;-80
2022/09/08 10:31:49;;;;;;;;;;;20.70;99.90;;;;;;6083039;23;20105;-79
2022/09/08 10:34:34;;;;;;;2.17;1.02;;;20.60;99.90;;;;;;6083380;23;19968;-81
2022/09/08 10:37:14;;;;;;;4.47;3.53;;;20.40;99.90;;;;;;6081520;23;20367;-80
2022/09/08 10:40:04;;;;;;;5.10;2.30;;;20.20;99.90;;;;;;6081941;23;20102;-82
2022/09/08 10:42:42;;;;;;;4.45;2.00;;;20.00;99.90;;;;;;6082929;23;20451;-82
2022/09/08 10:45:15;;;;;;;2.30;1.80;;;19.70;99.90;;;;;;6085035;23;20101;-78
2022/09/08 10:48:01;;;;;;;;;;;19.50;99.90;;;;;;6084867;23;20097;-81
2022/09/08 10:50:32;;;;;;;2.38;0.90;;;19.00;99.90;;;;;;6090224;23;19924;-83
2022/09/08 10:53:29;;;;;;;2.17;1.17;;;18.00;99.90;;;;;;6087737;23;20071;-88
2022/09/08 10:56:26;;;;;;;1.42;0.77;;;17.10;99.90;;;;;;6091691;23;20368;-82
2022/09/08 10:59:02;;;;;;;1.17;0.50;;;16.50;99.90;;;;;;6062261;23;20030;-87
2022/09/08 11:02:05;;;;;;;0.98;0.47;;;16.30;99.90;;;;;;6088316;23;20074;-90
2022/09/08 11:04:54;;;;;;;0.65;0.30;;;16.10;99.90;;;;;;6088384;23;20030;-87
2022/09/08 11:07:38;;;;;;;0.90;0.40;;;15.90;99.90;;;;;;6086621;23;20034;-91
2022/09/08 11:10:25;;;;;;;0.45;0.25;;;15.70;99.90;;;;;;6087532;23;20101;-90
2022/09/08 11:13:20;;;;;;;0.20;0.15;;;15.70;99.90;;;;;;6087645;23;20499;-91
2022/09/08 11:15:55;;;;;;;0.90;0.35;;;15.60;99.90;;;;;;6087414;23;20024;-86
2022/09/08 11:18:36;;;;;;;0.30;0.30;;;15.50;99.90;;;;;;6086130;23;20030;-89
2022/09/08 11:21:07;;;;;;;0.75;0.40;;;15.50;99.90;;;;;;6088541;23;20038;-88
2022/09/08 11:24:04;;;;;;;1.17;0.60;;;15.50;99.90;;;;;;6060058;23;20030;-82
2022/09/08 11:26:48;;;;;;;0.40;0.40;;;15.50;99.90;;;;;;6086020;23;20034;-83
2022/09/08 11:29:16;;;;;;;1.30;0.60;;;15.50;99.90;;;;;;6082246;23;20033;-82
2022/09/08 11:32:08;;;;;;;0.98;0.57;;;15.50;99.90;;;;;;6054806;23;20101;-83
2022/09/08 11:34:56;;;;;;;1.15;0.70;;;15.60;99.90;;;;;;6077961;23;20266;-79
2022/09/08 11:37:42;;;;;;;1.77;0.80;;;15.70;99.90;;;;;;6078151;23;20072;-79
2022/09/08 11:40:38;;;;;;;1.00;0.52;;;15.80;99.90;;;;;;6079006;23;20068;-81
2022/09/08 11:43:14;;;;;;;0.70;0.50;;;15.90;99.90;;;;;;6080419;23;20026;-82
2022/09/08 11:46:07;;;;;;;0.32;0.30;;;16.00;99.90;;;;;;6077869;23;20349;-82
2022/09/08 11:48:45;;;;;;;0.30;0.30;;;16.10;99.90;;;;;;6078070;23;20031;-80
2022/09/08 11:51:33;;;;;;;0.90;0.40;;;16.20;99.90;;;;;;6078664;23;20729;-81
2022/09/08 11:54:23;;;;;;;1.00;0.30;;;16.20;99.90;;;;;;6078040;23;20030;-81
2022/09/08 11:57:26;;;;;;;0.50;0.40;;;16.20;99.90;;;;;;6078694;23;20038;-80
2022/09/08 12:00:11;;;;;;;0.98;0.55;;;16.30;99.90;;;;;;6055239;23;20785;-81
2022/09/08 12:02:57;;;;;;;1.13;0.47;;;16.30;99.90;;;;;;6106131;23;20072;-79
2022/09/08 12:05:29;;;;;;;0.60;0.40;;;16.40;99.90;;;;;;6108873;23;20291;-80
2022/09/08 12:08:34;;;;;;;0.40;0.32;;;16.40;99.90;;;;;;6087128;23;20026;-79
2022/09/08 12:11:25;;;;;;;0.52;0.47;;;16.60;99.90;;;;;;6083533;23;20045;-77
2022/09/08 12:14:15;;;;;;;0.68;0.60;;;16.80;99.90;;;;;;6083826;23;20106;-77
2022/09/08 12:17:16;;;;;;;1.23;0.40;;;17.00;99.90;;;;;;6086866;23;20117;-77
2022/09/08 12:19:52;;;;;;;1.17;0.50;;;17.30;99.90;;;;;;6082232;23;20033;-78
2022/09/08 12:22:28;;;;;;;1.60;0.85;;;17.60;99.90;;;;;;6108137;23;20032;-78
2022/09/08 12:25:08;;;;;;;1.35;0.70;;;17.80;99.90;;;;;;6108452;23;20055;-79
2022/09/08 12:28:10;;;;;;;0.73;0.63;;;17.90;99.90;;;;;;6088330;23;20025;-79
2022/09/08 12:30:46;;;;;;;0.75;0.60;;;18.10;99.90;;;;;;6082398;23;20034;-79
2022/09/08 12:33:38;;;;;;;0.90;0.60;;;18.30;99.90;;;;;;6108289;23;20030;-78
2022/09/08 12:36:19;;;;;;;1.65;0.70;;;18.60;99.90;;;;;;6059180;23;20483;-76
2022/09/08 12:39:10;;;;;;;1.00;0.55;;;18.80;99.90;;;;;;6083817;23;20022;-76
2022/09/08 12:42:02;;;;;;;0.63;0.40;;;19.10;99.90;;;;;;6109617;23;20289;-77
2022/09/08 12:44:46;;;;;;;1.38;0.60;;;19.10;99.90;;;;;;6083601;23;20030;-77
2022/09/08 12:47:24;;;;;;;0.88;0.60;;;19.00;99.90;;;;;;6082390;23;20486;-76
2022/09/08 12:50:25;;;;;;;1.02;0.50;;;19.00;99.90;;;;;;6082918;23;20032;-76
2022/09/08 12:53:22;;;;;;;1.27;0.50;;;18.90;99.90;;;;;;6046119;23;20022;-76
2022/09/08 12:56:19;;;;;;;1.70;0.75;;;18.80;99.90;;;;;;6082437;23;20025;-77
2022/09/08 12:58:56;;;;;;;1.63;0.50;;;18.90;99.90;;;;;;6058972;23;20032;-76
2022/09/08 13:01:42;;;;;;;1.48;0.40;;;19.00;99.90;;;;;;6082124;23;20316;-77
2022/09/08 13:04:36;;;;;;;2.40;0.73;;;19.20;99.90;;;;;;6061321;23;20049;-75
2022/09/08 13:07:15;;;;;;;0.98;0.60;;;19.50;99.90;;;;;;6107684;23;20700;-76
2022/09/08 13:10:12;;;;;;;1.33;0.63;;;19.80;99.90;;;;;;6082327;23;20347;-76
2022/09/08 13:13:17;;;;;;;1.73;0.90;;;19.80;99.90;;;;;;6079356;23;20435;-76
2022/09/08 13:15:47;;;;;;;0.98;0.73;;;20.60;99.90;;;;;;6082928;23;20097;-76
2022/09/08 13:18:19;;;;;;;0.95;0.50;;;21.50;99.90;;;;;;6083154;23;20042;-76
2022/09/08 13:20:52;;;;;;;0.70;0.50;;;22.10;99.90;;;;;;6059730;23;20102;-76
2022/09/08 13:23:52;;;;;;;1.55;0.52;;;22.50;99.90;;;;;;6059002;23;20573;-77
2022/09/08 13:26:26;;;;;;;1.95;0.60;;;22.80;99.90;;;;;;6080916;23;20106;-76
2022/09/08 13:29:08;;;;;;;2.40;0.80;;;22.60;99.90;;;;;;6083652;23;20030;-76
2022/09/08 13:32:11;;;;;;;3.30;1.07;;;22.40;99.90;;;;;;6087336;23;20431;-76
2022/09/08 13:35:34;;;;;;;2.08;0.80;;;21.90;99.90;;;;;;6083721;23;20052;-75
2022/09/08 13:38:14;;;;;;;2.03;0.93;;;21.50;99.90;;;;;;6056750;23;20093;-75
2022/09/08 13:40:49;;;;;;;1.23;0.60;;;21.20;99.90;;;;;;6110406;23;20498;-75
2022/09/08 13:43:59;;;;;;;2.03;0.60;;;21.00;99.90;;;;;;6061019;23;20021;-75
2022/09/08 13:46:31;;;;;;;2.63;1.10;;;20.90;99.90;;;;;;6069182;23;20126;-75
2022/09/08 13:49:22;;;;;;;2.47;1.00;;;20.60;99.90;;;;;;6086649;23;20014;-76